Time;durP1;ratioP1;P1;durP2;ratioP2;P2;SDS_P1;SDS_P2;PMS_P1;PMS_P2;Temp;Humidity;BMP_temperature;BMP_pressure;BME280_temperature;BME280_humidity;BME280_pressure;Samples;Min_cycle;Max_cycle;Signal;HPM_P1;HPM_P2
2023/12/07 00:02:13;;;;;;;;;;;;;;;1.75;90.34;101256.38;4201386;28;19943;-90
2023/12/07 00:04:45;;;;;;;;;;;;;;;1.75;90.12;101261.69;4177716;28;19968;-89
2023/12/07 00:07:27;;;;;;;;;;;;;;;1.74;90.38;101260.00;4179642;28;19989;-89
2023/12/07 00:09:48;;;;;;;;;;;;;;;1.73;90.39;101260.94;4187848;28;19992;-87
2023/12/07 00:12:11;;;;;;;;;;;;;;;1.72;90.65;101261.06;4161817;28;19931;-87
2023/12/07 00:14:31;;;;;;;;;;;;;;;1.72;90.67;101264.56;4187607;28;19963;-86
2023/12/07 00:16:57;;;;;;;;;;;;;;;1.72;90.46;101271.72;4187765;28;20002;-86
2023/12/07 00:19:21;;;;;;;;;;;;;;;1.70;90.73;101263.81;4172595;28;19979;-86
2023/12/07 00:21:41;;;;;;;;;;;;;;;1.71;90.80;101270.00;4185177;28;19933;-87
2023/12/07 00:24:02;;;;;;;;;;;;;;;1.69;90.59;101262.13;4186763;28;19970;-87
2023/12/07 00:26:23;;;;;;;;;;;;;;;1.68;90.87;101265.75;4166572;28;19943;-87
2023/12/07 00:28:45;;;;;;;;;;;;;;;1.69;91.13;101269.25;4158151;28;20002;-87
2023/12/07 00:31:08;;;;;;;;;;;;;;;1.68;90.75;101263.09;4150859;28;20464;-87
2023/12/07 00:33:29;;;;;;;;;;;;;;;1.67;91.04;101269.38;4172215;28;20092;-88
2023/12/07 00:35:49;;;;;;;;;;;;;;;1.68;90.88;101264.88;4174021;28;19947;-87
2023/12/07 00:38:10;;;;;;;;;;;;;;;1.66;91.07;101272.97;4159714;28;19932;-86
2023/12/07 00:40:35;;;;;;;;;;;;;;;1.68;91.05;101270.22;4186813;28;19931;-86
2023/12/07 00:42:56;;;;;;;;;;;;;;;1.66;91.20;101269.47;4169190;28;20308;-87
2023/12/07 00:45:19;;;;;;;;;;;;;;;1.63;91.35;101275.88;4184656;28;19935;-87
2023/12/07 00:47:40;;;;;;;;;;;;;;;1.64;91.42;101279.38;4187618;28;19940;-86
2023/12/07 00:50:01;;;;;;;;;;;;;;;1.65;91.10;101281.94;4172684;28;19955;-88
2023/12/07 00:52:29;;;;;;;;;;;;;;;1.64;91.31;101280.22;4171916;28;19935;-89
2023/12/07 00:54:50;;;;;;;;;;;;;;;1.63;91.58;101273.22;4159134;28;20300;-88
2023/12/07 00:57:10;;;;;;;;;;;;;;;1.64;91.37;101272.25;4172763;28;20311;-89
2023/12/07 00:59:34;;;;;;;;;;;;;;;1.62;91.45;101274.16;4173691;28;19932;-90
2023/12/07 01:02:00;;;;;;;;;;;;;;;1.61;91.74;101269.78;4156212;28;19936;-88
2023/12/07 01:04:24;;;;;;;;;;;;;;;1.60;91.75;101268.94;4188406;28;19936;-87
2023/12/07 01:06:45;;;;;;;;;;;;;;;1.61;91.70;101275.13;4159505;28;19984;-87
2023/12/07 01:09:06;;;;;;;;;;;;;;;1.60;92.04;101289.41;4161750;28;19932;-87
2023/12/07 01:11:27;;;;;;;;;;;;;;;1.59;92.11;101291.19;4193349;28;19951;-88
2023/12/07 01:13:48;;;;;;;;;;;;;;;1.59;92.27;101290.34;4169420;28;20016;-87
2023/12/07 01:16:08;;;;;;;;;;;;;;;1.60;92.36;101305.38;4169902;28;20040;-87
2023/12/07 01:18:30;;;;;;;;;;;;;;;1.59;92.51;101296.53;4172731;28;19975;-87
2023/12/07 01:20:51;;;;;;;;;;;;;;;1.62;92.34;101308.78;4149120;28;19932;-86
2023/12/07 01:23:12;;;;;;;;;;;;;;;1.63;91.99;101321.16;4189994;28;19947;-87
2023/12/07 01:25:33;;;;;;;;;;;;;;;1.66;91.86;101323.56;4177064;28;19983;-87
2023/12/07 01:27:54;;;;;;;;;;;;;;;1.65;92.00;101321.88;4175249;28;20025;-86
2023/12/07 01:30:15;;;;;;;;;;;;;;;1.65;91.90;101316.56;4174753;28;19935;-87
2023/12/07 01:32:36;;;;;;;;;;;;;;;1.67;91.67;101319.13;4175188;28;19936;-86
2023/12/07 01:34:59;;;;;;;;;;;;;;;1.65;91.70;101323.72;4178241;28;19939;-87
2023/12/07 01:37:19;;;;;;;;;;;;;;;1.66;92.05;101325.38;4191333;28;19980;-89
2023/12/07 01:39:42;;;;;;;;;;;;;;;1.66;91.68;101320.91;4193035;28;19970;-90
2023/12/07 01:42:04;;;;;;;;;;;;;;;1.67;91.96;101332.44;4179019;28;20342;-90
2023/12/07 01:44:25;;;;;;;;;;;;;;;1.68;91.54;101331.44;4176919;28;19983;-89
2023/12/07 01:46:46;;;;;;;;;;;;;;;1.68;91.79;101335.00;4207439;28;19950;-89
2023/12/07 01:49:07;;;;;;;;;;;;;;;1.68;91.58;101336.78;4190856;28;20374;-88
2023/12/07 01:51:32;;;;;;;;;;;;;;;1.66;91.85;101342.22;4179234;28;19936;-89
2023/12/07 01:53:53;;;;;;;;;;;;;;;1.66;91.78;101344.88;4192356;28;20018;-88
2023/12/07 01:56:14;;;;;;;;;;;;;;;1.68;91.59;101340.31;4178719;28;20003;-89
2023/12/07 01:58:35;;;;;;;;;;;;;;;1.68;91.81;101347.44;4191622;28;20341;-89
2023/12/07 02:00:55;;;;;;;;;;;;;;;1.68;91.64;101342.09;4189717;28;20027;-90
2023/12/07 02:03:16;;;;;;;;;;;;;;;1.66;91.88;101347.53;4207499;28;19993;-89
2023/12/07 02:05:37;;;;;;;;;;;;;;;1.69;91.88;101341.16;4207031;28;19939;-90
2023/12/07 02:08:00;;;;;;;;;;;;;;;1.68;91.76;101345.66;4207397;28;19982;-89
2023/12/07 02:10:20;;;;;;;;;;;;;;;1.68;91.61;101348.31;4205916;28;19977;-88
2023/12/07 02:12:41;;;;;;;;;;;;;;;1.69;91.31;101346.50;4175411;28;19981;-89
2023/12/07 02:15:02;;;;;;;;;;;;;;;1.69;91.31;101346.50;4189916;28;19951;-88
2023/12/07 02:17:22;;;;;;;;;;;;;;;1.70;91.43;101345.53;4192244;28;19995;-88
2023/12/07 02:19:48;;;;;;;;;;;;;;;1.67;91.36;101346.59;4176470;28;20377;-88
2023/12/07 02:22:11;;;;;;;;;;;;;;;1.67;91.60;101338.59;4189620;28;19947;-89
2023/12/07 02:24:36;;;;;;;;;;;;;;;1.65;91.65;101351.19;4177076;28;20534;-88
2023/12/07 02:26:58;;;;;;;;;;;;;;;1.66;91.77;101346.69;4205204;28;19935;-87
2023/12/07 02:29:18;;;;;;;;;;;;;;;1.62;92.09;101344.25;4189111;28;20015;-88
2023/12/07 02:31:39;;;;;;;;;;;;;;;1.63;92.23;101337.13;4189968;28;19932;-87
2023/12/07 02:34:00;;;;;;;;;;;;;;;1.65;92.13;101342.34;4177116;28;19931;-88
2023/12/07 02:36:19;;;;;;;;;;;;;;;1.66;92.11;101350.19;4190154;28;20047;-88
2023/12/07 02:38:40;;;;;;;;;;;;;;;1.65;92.23;101343.19;4190053;28;20421;-88
2023/12/07 02:41:01;;;;;;;;;;;;;;;1.66;92.17;101352.84;4190007;28;19932;-89
2023/12/07 02:43:23;;;;;;;;;;;;;;;1.67;92.03;101353.72;4188831;28;19944;-88
2023/12/07 02:45:44;;;;;;;;;;;;;;;1.66;91.96;101355.53;4190478;28;19971;-88
2023/12/07 02:48:06;;;;;;;;;;;;;;;1.67;91.94;101354.56;4192158;28;20382;-87
2023/12/07 02:50:26;;;;;;;;;;;;;;;1.65;92.03;101356.50;4205284;28;20382;-87
2023/12/07 02:52:47;;;;;;;;;;;;;;;1.67;92.12;101362.56;4190335;28;20005;-87
2023/12/07 02:55:08;;;;;;;;;;;;;;;1.66;92.10;101366.19;4190137;28;20544;-88
2023/12/07 02:57:29;;;;;;;;;;;;;;;1.68;91.90;101366.06;4162707;28;19936;-88
2023/12/07 02:59:52;;;;;;;;;;;;;;;1.67;91.95;101373.22;4188705;28;19931;-89
2023/12/07 03:02:12;;;;;;;;;;;;;;;1.68;92.12;101371.41;4189361;28;20308;-89
2023/12/07 03:04:33;;;;;;;;;;;;;;;1.68;92.11;101374.94;4189400;28;19987;-89
2023/12/07 03:06:54;;;;;;;;;;;;;;;1.67;91.75;101367.91;4190526;28;19947;-89
2023/12/07 03:09:16;;;;;;;;;;;;;;;1.67;92.18;101375.03;4205130;28;20326;-90
2023/12/07 03:11:37;;;;;;;;;;;;;;;1.68;92.03;101371.41;4176886;28;19959;-90
2023/12/07 03:13:59;;;;;;;;;;;;;;;1.68;92.15;101388.25;4188064;28;20379;-89
2023/12/07 03:16:22;;;;;;;;;;;;;;;1.67;92.12;101378.53;4163448;28;20275;-89
2023/12/07 03:18:44;;;;;;;;;;;;;;;1.67;92.20;101381.22;4190774;28;19960;-87
2023/12/07 03:21:05;;;;;;;;;;;;;;;1.66;91.99;101378.66;4189998;28;20015;-88
2023/12/07 03:23:25;;;;;;;;;;;;;;;1.66;92.08;101378.66;4205068;28;19982;-88
2023/12/07 03:25:46;;;;;;;;;;;;;;;1.65;92.40;101383.13;4176076;28;19936;-88
2023/12/07 03:28:07;;;;;;;;;;;;;;;1.65;92.35;101387.63;4190304;28;19980;-87
2023/12/07 03:30:27;;;;;;;;;;;;;;;1.62;92.39;101389.50;4188456;28;20111;-88
2023/12/07 03:32:50;;;;;;;;;;;;;;;1.62;92.28;101394.00;4189147;28;20011;-87
2023/12/07 03:35:11;;;;;;;;;;;;;;;1.63;92.32;101393.03;4204682;28;19932;-87
2023/12/07 03:37:31;;;;;;;;;;;;;;;1.66;92.34;101390.16;4175695;28;19991;-87
2023/12/07 03:39:52;;;;;;;;;;;;;;;1.66;92.13;101382.16;4188712;28;20044;-87
2023/12/07 03:42:13;;;;;;;;;;;;;;;1.65;92.38;101388.47;4175346;28;19983;-87
2023/12/07 03:44:33;;;;;;;;;;;;;;;1.67;92.32;101393.69;4189320;28;19952;-88
2023/12/07 03:46:56;;;;;;;;;;;;;;;1.67;92.33;101399.84;4189744;28;19975;-88
2023/12/07 03:49:18;;;;;;;;;;;;;;;1.67;92.10;101405.19;4203161;28;19939;-87
2023/12/07 03:51:38;;;;;;;;;;;;;;;1.65;92.33;101407.09;4204453;28;19974;-87
2023/12/07 03:53:59;;;;;;;;;;;;;;;1.67;92.08;101401.66;4175813;28;19966;-88
2023/12/07 03:56:26;;;;;;;;;;;;;;;1.66;92.19;101408.78;4203780;28;20045;-88
2023/12/07 03:58:47;;;;;;;;;;;;;;;1.68;92.30;101406.03;4204623;28;19934;-88
2023/12/07 04:01:08;;;;;;;;;;;;;;;1.66;92.23;101416.78;4188749;28;19998;-87
2023/12/07 04:03:28;;;;;;;;;;;;;;;1.66;92.18;101413.25;4202838;28;19931;-86
2023/12/07 04:05:50;;;;;;;;;;;;;;;1.67;92.34;101402.50;4204627;28;20377;-90
2023/12/07 04:08:11;;;;;;;;;;;;;;;1.67;92.43;101407.84;4176999;28;19931;-90
2023/12/07 04:10:32;;;;;;;;;;;;;;;1.65;92.49;101416.91;4177142;28;19983;-90
2023/12/07 04:12:53;;;;;;;;;;;;;;;1.64;92.91;101405.38;4188400;28;19931;-90
2023/12/07 04:15:17;;;;;;;;;;;;;;;1.65;92.92;101406.25;4175583;28;19988;-89
2023/12/07 04:17:37;;;;;;;;;;;;;;;1.65;92.88;101407.09;4174513;28;19996;-88
2023/12/07 04:19:58;;;;;;;;;;;;;;;1.65;92.87;101415.09;4203813;28;19972;-87
2023/12/07 04:22:21;;;;;;;;;;;;;;;1.65;92.72;101412.41;4174082;28;20280;-88
2023/12/07 04:24:42;;;;;;;;;;;;;;;1.65;92.90;101409.75;4189727;28;20435;-88
2023/12/07 04:27:04;;;;;;;;;;;;;;;1.65;92.85;101409.75;4203472;28;19930;-88
2023/12/07 04:29:25;;;;;;;;;;;;;;;1.67;92.50;101413.16;4189169;28;19931;-88
2023/12/07 04:31:46;;;;;;;;;;;;;;;1.68;92.73;101417.53;4206251;28;19935;-89
2023/12/07 04:34:07;;;;;;;;;;;;;;;1.69;92.73;101415.72;4191974;28;20355;-88
2023/12/07 04:36:27;;;;;;;;;;;;;;;1.69;92.72;101419.22;4176587;28;19935;-88
2023/12/07 04:38:49;;;;;;;;;;;;;;;1.69;92.54;101410.41;4161263;28;19956;-88
2023/12/07 04:41:10;;;;;;;;;;;;;;;1.71;92.76;101427.13;4204375;28;19950;-88
2023/12/07 04:43:31;;;;;;;;;;;;;;;1.71;92.41;101427.13;4207082;28;20394;-87
2023/12/07 04:45:52;;;;;;;;;;;;;;;1.72;92.36;101440.34;4204378;28;19944;-88
2023/12/07 04:48:11;;;;;;;;;;;;;;;1.72;92.57;101440.34;4190509;28;19935;-88
2023/12/07 04:50:32;;;;;;;;;;;;;;;1.72;92.37;101435.00;4164489;28;19931;-88
2023/12/07 04:52:54;;;;;;;;;;;;;;;1.73;92.22;101447.38;4191307;28;19932;-87
2023/12/07 04:55:17;;;;;;;;;;;;;;;1.73;92.47;101444.72;4178655;28;19935;-88
2023/12/07 04:57:38;;;;;;;;;;;;;;;1.74;92.03;101449.09;4190941;28;19935;-87
2023/12/07 04:59:59;;;;;;;;;;;;;;;1.74;92.46;101451.75;4192076;28;20026;-89
2023/12/07 05:02:19;;;;;;;;;;;;;;;1.74;92.33;101445.56;4206504;28;20408;-89
2023/12/07 05:04:40;;;;;;;;;;;;;;;1.74;92.30;101448.22;4177903;28;19931;-88
2023/12/07 05:07:03;;;;;;;;;;;;;;;1.73;92.53;101446.53;4191201;28;19951;-88
2023/12/07 05:09:24;;;;;;;;;;;;;;;1.72;92.30;101453.66;4178259;28;19956;-88
2023/12/07 05:11:46;;;;;;;;;;;;;;;1.73;92.60;101455.38;4194255;28;20002;-89
2023/12/07 05:14:07;;;;;;;;;;;;;;;1.73;92.58;101451.84;4177481;28;20310;-86
2023/12/07 05:16:28;;;;;;;;;;;;;;;1.74;92.65;101450.88;4190400;28;20015;-89
2023/12/07 05:18:49;;;;;;;;;;;;;;;1.73;92.47;101454.53;4206436;28;20577;-89
2023/12/07 05:21:10;;;;;;;;;;;;;;;1.72;92.74;101450.97;4191186;28;19943;-89
2023/12/07 05:23:32;;;;;;;;;;;;;;;1.72;92.88;101452.81;4191028;28;20022;-89
2023/12/07 05:25:55;;;;;;;;;;;;;;;1.69;92.81;101451.19;4191109;28;19931;-88
2023/12/07 05:28:17;;;;;;;;;;;;;;;1.70;92.97;101455.56;4179597;28;19993;-89
2023/12/07 05:30:38;;;;;;;;;;;;;;;1.71;92.86;101456.41;4189182;28;19955;-89
2023/12/07 05:32:59;;;;;;;;;;;;;;;1.69;92.92;101455.66;4153474;28;19977;-88
2023/12/07 05:35:21;;;;;;;;;;;;;;;1.68;92.89;101457.50;4175546;28;19968;-88
2023/12/07 05:37:56;;;;;;;;;;;;;;;1.69;92.98;101458.34;4209404;28;20219;-89
2023/12/07 05:40:20;;;;;;;;;;;;;;;1.69;93.20;101458.34;4195697;28;19982;-89
2023/12/07 05:42:41;;;;;;;;;;;;;;;1.68;93.33;101459.28;4207660;28;19984;-90
2023/12/07 05:45:04;;;;;;;;;;;;;;;1.67;93.16;101465.59;4182213;28;19925;-87
2023/12/07 05:47:25;;;;;;;;;;;;;;;1.66;93.50;101456.72;4196742;28;19932;-87
2023/12/07 05:49:46;;;;;;;;;;;;;;;1.68;93.41;101456.63;4190965;28;19936;-85
2023/12/07 05:52:07;;;;;;;;;;;;;;;1.69;93.16;101458.34;4188426;28;19940;-85
2023/12/07 05:54:28;;;;;;;;;;;;;;;1.69;93.03;101459.19;4189432;28;20000;-83
2023/12/07 05:56:49;;;;;;;;;;;;;;;1.71;93.10;101461.75;4176263;28;19974;-85
2023/12/07 05:59:09;;;;;;;;;;;;;;;1.69;93.35;101461.84;4164101;28;19987;-83
2023/12/07 06:01:32;;;;;;;;;;;;;;;1.70;93.27;101463.56;4186962;28;20011;-85
2023/12/07 06:03:53;;;;;;;;;;;;;;;1.71;93.32;101465.28;4159947;28;19948;-86
2023/12/07 06:06:13;;;;;;;;;;;;;;;1.69;93.24;101458.34;4173925;28;19992;-87
2023/12/07 06:08:34;;;;;;;;;;;;;;;1.70;93.49;101465.38;4189022;28;20405;-86
2023/12/07 06:10:55;;;;;;;;;;;;;;;1.70;93.35;101462.72;4171570;28;19932;-86
2023/12/07 06:13:16;;;;;;;;;;;;;;;1.71;93.26;101473.25;4173682;28;19936;-85
2023/12/07 06:15:36;;;;;;;;;;;;;;;1.72;93.13;101474.94;4187147;28;20271;-86
2023/12/07 06:17:59;;;;;;;;;;;;;;;1.72;92.95;101480.28;4149018;28;20344;-85
2023/12/07 06:20:20;;;;;;;;;;;;;;;1.73;93.08;101475.81;4188638;28;20298;-87
2023/12/07 06:22:40;;;;;;;;;;;;;;;1.74;93.17;101482.84;4173445;28;19936;-87
2023/12/07 06:25:01;;;;;;;;;;;;;;;1.75;93.03;101479.22;4147613;28;19932;-87
2023/12/07 06:27:20;;;;;;;;;;;;;;;1.73;93.32;101479.34;4172526;28;19975;-86
2023/12/07 06:29:41;;;;;;;;;;;;;;;1.75;93.15;101487.22;4186944;28;20398;-91
2023/12/07 06:32:03;;;;;;;;;;;;;;;1.77;93.11;101487.97;4157032;28;19933;-92
2023/12/07 06:34:26;;;;;;;;;;;;;;;1.77;92.86;101499.50;4173418;28;20006;-90
2023/12/07 06:36:47;;;;;;;;;;;;;;;1.75;92.86;101495.22;4187831;28;19935;-90
2023/12/07 06:39:08;;;;;;;;;;;;;;;1.76;92.97;101499.59;4177848;28;19974;-89
2023/12/07 06:41:29;;;;;;;;;;;;;;;1.76;92.89;101503.09;4156994;28;20093;-90
2023/12/07 06:43:50;;;;;;;;;;;;;;;1.77;92.87;101507.50;4174847;28;20333;-89
2023/12/07 06:46:11;;;;;;;;;;;;;;;1.77;92.91;101510.16;4173991;28;20016;-90
2023/12/07 06:48:31;;;;;;;;;;;;;;;1.79;92.39;101512.72;4174428;28;19976;-87
2023/12/07 06:50:54;;;;;;;;;;;;;;;1.79;92.52;101516.22;4173155;28;19986;-88
2023/12/07 06:53:15;;;;;;;;;;;;;;;1.81;92.36;101518.78;4173349;28;21000;-89
2023/12/07 06:55:36;;;;;;;;;;;;;;;1.82;92.14;101516.97;4174534;28;19948;-89
2023/12/07 06:57:56;;;;;;;;;;;;;;;1.82;92.16;101525.84;4159759;28;19995;-90
2023/12/07 07:00:18;;;;;;;;;;;;;;;1.82;91.92;101519.63;4172168;28;20004;-91
2023/12/07 07:02:39;;;;;;;;;;;;;;;1.82;92.00;101522.28;4159714;28;19937;-89
2023/12/07 07:05:00;;;;;;;;;;;;;;;1.82;92.14;101520.50;4173501;28;19932;-88
2023/12/07 07:07:22;;;;;;;;;;;;;;;1.83;91.89;101516.03;4170878;28;20007;-89
2023/12/07 07:09:42;;;;;;;;;;;;;;;1.80;92.21;101519.72;4179587;28;19975;-88
2023/12/07 07:12:05;;;;;;;;;;;;;;;1.81;91.83;101518.78;4159514;28;19936;-87
2023/12/07 07:14:27;;;;;;;;;;;;;;;1.82;92.23;101524.94;4186494;28;19935;-88
2023/12/07 07:16:49;;;;;;;;;;;;;;;1.79;92.34;101520.69;4171845;28;20032;-88
2023/12/07 07:19:11;;;;;;;;;;;;;;;1.83;91.88;101518.69;4151534;28;20332;-88
2023/12/07 07:21:31;;;;;;;;;;;;;;;1.83;91.74;101524.84;4171826;28;19948;-89
2023/12/07 07:23:55;;;;;;;;;;;;;;;1.84;91.77;101531.06;4174931;28;20362;-88
2023/12/07 07:26:17;;;;;;;;;;;;;;;1.83;91.58;101530.19;4170018;28;19932;-90
2023/12/07 07:28:38;;;;;;;;;;;;;;;1.84;91.83;101531.06;4173310;28;19959;-88
2023/12/07 07:30:59;;;;;;;;;;;;;;;1.85;91.47;101535.41;4159596;28;20076;-88
2023/12/07 07:33:20;;;;;;;;;;;;;;;1.82;91.58;101528.50;4155825;28;19936;-88
2023/12/07 07:35:40;;;;;;;;;;;;;;;1.83;91.70;101540.84;4185798;28;19951;-86
2023/12/07 07:38:01;;;;;;;;;;;;;;;1.84;91.50;101537.22;4185509;28;19931;-83
2023/12/07 07:40:24;;;;;;;;;;;;;;;1.82;91.52;101536.50;4158985;28;19940;-84
2023/12/07 07:42:46;;;;;;;;;;;;;;;1.82;91.62;101530.28;4143842;28;19996;-84
2023/12/07 07:45:11;;;;;;;;;;;;;;;1.83;91.45;101534.66;4143099;28;19943;-85
2023/12/07 07:47:32;;;;;;;;;;;;;;;1.82;91.50;101522.28;4168979;28;20077;-85
2023/12/07 07:49:53;;;;;;;;;;;;;;;1.83;91.47;101532.00;4186153;28;19935;-86
2023/12/07 07:52:14;;;;;;;;;;;;;;;1.83;91.43;101535.50;4157376;28;19977;-87
2023/12/07 07:54:35;;;;;;;;;;;;;;;1.83;91.24;101538.16;4169862;28;19983;-87
2023/12/07 07:56:57;;;;;;;;;;;;;;;1.83;91.27;101540.00;4184228;28;21616;-87
2023/12/07 07:59:18;;;;;;;;;;;;;;;1.83;91.37;101534.66;4183686;28;19940;-86
2023/12/07 08:01:38;;;;;;;;;;;;;;;1.82;91.42;101531.16;4185219;28;19954;-87
2023/12/07 08:04:00;;;;;;;;;;;;;;;1.83;91.50;101534.66;4172359;28;20022;-88
2023/12/07 08:06:20;;;;;;;;;;;;;;;1.82;91.47;101538.28;4171471;28;19995;-89
2023/12/07 08:08:41;;;;;;;;;;;;;;;1.82;91.64;101538.28;4170100;28;19933;-87
2023/12/07 08:11:01;;;;;;;;;;;;;;;1.81;91.72;101542.75;4170203;28;19936;-87
2023/12/07 08:13:24;;;;;;;;;;;;;;;1.82;91.85;101543.59;4155319;28;19940;-88
2023/12/07 08:15:45;;;;;;;;;;;;;;;1.83;91.51;101542.66;4182811;28;20559;-87
2023/12/07 08:18:06;;;;;;;;;;;;;;;1.82;91.41;101540.94;4185247;28;19931;-87
2023/12/07 08:20:27;;;;;;;;;;;;;;;1.82;91.47;101540.94;4144069;28;19972;-87
2023/12/07 08:22:48;;;;;;;;;;;;;;;1.80;91.43;101539.25;4172605;28;19986;-91
2023/12/07 08:25:09;;;;;;;;;;;;;;;1.83;91.35;101540.00;4169038;28;19960;-87
2023/12/07 08:27:30;;;;;;;;;;;;;;;1.84;91.37;101547.88;4144078;28;19941;-88
2023/12/07 08:29:55;;;;;;;;;;;;;;;1.84;91.24;101553.22;4186784;28;20057;-89
2023/12/07 08:32:18;;;;;;;;;;;;;;;1.84;91.38;101553.22;4152721;28;19940;-89
2023/12/07 08:34:40;;;;;;;;;;;;;;;1.86;91.23;101559.28;4186275;28;19951;-89
2023/12/07 08:37:03;;;;;;;;;;;;;;;1.89;91.12;101558.25;4171819;28;19931;-88
2023/12/07 08:39:26;;;;;;;;;;;;;;;1.89;90.71;101556.41;4157902;28;20406;-88
2023/12/07 08:41:46;;;;;;;;;;;;;;;1.90;90.64;101562.63;4156642;28;19985;-90
2023/12/07 08:44:07;;;;;;;;;;;;;;;1.90;90.65;101562.63;4169679;28;20051;-88
2023/12/07 08:46:30;;;;;;;;;;;;;;;1.90;90.64;101562.63;4183741;28;19931;-88
2023/12/07 08:48:53;;;;;;;;;;;;;;;1.91;90.37;101567.84;4168466;28;20032;-90
2023/12/07 08:51:14;;;;;;;;;;;;;;;1.90;90.59;101573.28;4156949;28;20303;-88
2023/12/07 08:53:35;;;;;;;;;;;;;;;1.92;90.25;101568.69;4165456;28;20023;-89
2023/12/07 08:55:58;;;;;;;;;;;;;;;1.93;90.26;101583.75;4168165;28;19944;-88
2023/12/07 08:58:23;;;;;;;;;;;;;;;1.91;90.26;101570.50;4185547;28;20044;-88
2023/12/07 09:00:44;;;;;;;;;;;;;;;1.91;90.40;101575.84;4173051;28;19932;-87
2023/12/07 09:03:06;;;;;;;;;;;;;;;1.92;90.33;101574.03;4184381;28;19930;-88
2023/12/07 09:05:27;;;;;;;;;;;;;;;1.93;90.20;101567.75;4168722;28;20028;-88
2023/12/07 09:07:49;;;;;;;;;;;;;;;1.92;90.35;101572.19;4185800;28;19932;-90
2023/12/07 09:10:10;;;;;;;;;;;;;;;1.95;90.14;101579.16;4158942;28;19936;-89
2023/12/07 09:12:30;;;;;;;;;;;;;;;1.95;89.98;101577.34;4161948;28;19980;-89
2023/12/07 09:14:51;;;;;;;;;;;;;;;1.95;89.91;101572.00;4156782;28;19967;-88
2023/12/07 09:17:12;;;;;;;;;;;;;;;1.96;90.02;101573.72;4174217;28;19935;-88
2023/12/07 09:19:35;;;;;;;;;;;;;;;1.97;89.70;101571.91;4186830;28;19931;-87
2023/12/07 09:21:59;;;;;;;;;;;;;;;1.97;89.78;101574.56;4158680;28;19932;-88
2023/12/07 09:24:21;;;;;;;;;;;;;;;1.97;89.94;101575.44;4167251;28;19935;-89
2023/12/07 09:26:41;;;;;;;;;;;;;;;1.99;89.90;101575.31;4189151;28;19967;-89
2023/12/07 09:29:02;;;;;;;;;;;;;;;1.97;89.63;101578.09;4207896;28;19947;-88
2023/12/07 09:31:23;;;;;;;;;;;;;;;2.00;89.62;101581.53;4209074;28;19946;-87
2023/12/07 09:33:45;;;;;;;;;;;;;;;2.03;89.69;101578.66;4190984;28;19932;-87
2023/12/07 09:36:08;;;;;;;;;;;;;;;2.03;89.52;101583.97;4175346;28;19915;-86
2023/12/07 09:38:29;;;;;;;;;;;;;;;2.01;89.43;101575.22;4182101;28;19960;-84
2023/12/07 09:40:53;;;;;;;;;;;;;;;2.01;89.75;101581.41;4194965;28;19930;-84
2023/12/07 09:46:11;;;;;;;;;;;;;;;2.05;89.48;101596.22;4166516;28;20009;-84
2023/12/07 09:48:58;;;;;;;;;;;;;;;2.07;89.41;101588.13;4191305;28;20531;-84
2023/12/07 09:51:20;;;;;;;;;;;;;;;2.07;89.00;101601.47;4189842;28;20022;-85
2023/12/07 09:53:42;;;;;;;;;;;;;;;2.07;88.97;101597.00;4190273;28;20016;-84
2023/12/07 09:56:03;;;;;;;;;;;;;;;2.09;88.98;101594.25;4190419;28;19930;-84
2023/12/07 09:58:23;;;;;;;;;;;;;;;2.08;89.24;101597.84;4159131;28;19955;-84
2023/12/07 10:00:44;;;;;;;;;;;;;;;2.08;89.02;101600.50;4187185;28;20024;-84
2023/12/07 10:03:07;;;;;;;;;;;;;;;2.10;88.72;101601.25;4171536;28;19936;-85
2023/12/07 10:05:29;;;;;;;;;;;;;;;2.09;89.02;101600.41;4172944;28;20074;-83
2023/12/07 10:07:52;;;;;;;;;;;;;;;2.14;88.67;101600.13;4166936;28;19936;-84
2023/12/07 10:10:13;;;;;;;;;;;;;;;2.13;88.80;101606.38;4176136;28;19951;-85
2023/12/07 10:12:34;;;;;;;;;;;;;;;2.14;88.77;101595.63;4187378;28;20845;-84
2023/12/07 10:14:55;;;;;;;;;;;;;;;2.16;88.76;101601.72;4159849;28;19996;-84
2023/12/07 10:17:16;;;;;;;;;;;;;;;2.17;88.66;101597.25;4185648;28;19986;-85
2023/12/07 10:19:37;;;;;;;;;;;;;;;2.16;88.39;101595.53;4173908;28;20402;-85
2023/12/07 10:21:57;;;;;;;;;;;;;;;2.15;88.63;101592.00;4186807;28;19931;-84
2023/12/07 10:24:20;;;;;;;;;;;;;;;2.16;88.61;101591.06;4181431;28;19943;-84
2023/12/07 10:26:41;;;;;;;;;;;;;;;2.15;88.60;101592.00;4169047;28;20016;-85
2023/12/07 10:29:01;;;;;;;;;;;;;;;2.15;88.75;101586.69;4171845;28;19951;-86
2023/12/07 10:31:23;;;;;;;;;;;;;;;2.15;88.69;101584.03;4185756;28;19943;-86
2023/12/07 10:33:45;;;;;;;;;;;;;;;2.14;88.53;101582.31;4171357;28;19986;-84
2023/12/07 10:36:06;;;;;;;;;;;;;;;2.16;88.64;101584.88;4157795;28;20053;-87
2023/12/07 10:38:27;;;;;;;;;;;;;;;2.20;88.53;101588.19;4171104;28;19953;-84
2023/12/07 10:40:50;;;;;;;;;;;;;;;2.18;88.33;101588.31;4168981;28;19982;-83
2023/12/07 10:43:11;;;;;;;;;;;;;;;2.18;88.55;101593.63;4185276;28;20046;-82
2023/12/07 10:45:31;;;;;;;;;;;;;;;2.19;88.27;101594.47;4168559;28;19936;-83
2023/12/07 10:47:52;;;;;;;;;;;;;;;2.19;88.36;101586.47;4172085;28;19943;-87
2023/12/07 10:50:12;;;;;;;;;;;;;;;2.21;88.41;101592.56;4170316;28;19983;-86
2023/12/07 10:52:33;;;;;;;;;;;;;;;2.20;88.48;101583.72;4159400;28;19979;-86
2023/12/07 10:54:56;;;;;;;;;;;;;;;2.19;88.31;101578.50;4184288;28;20322;-87
2023/12/07 10:57:21;;;;;;;;;;;;;;;2.19;88.21;101583.81;4155259;28;19932;-86
2023/12/07 10:59:43;;;;;;;;;;;;;;;2.15;88.33;101586.69;4168461;28;20059;-86
2023/12/07 11:02:03;;;;;;;;;;;;;;;2.17;88.34;101576.75;4169833;28;20000;-85
2023/12/07 11:04:24;;;;;;;;;;;;;;;2.20;88.57;101589.03;4168308;28;19932;-84
2023/12/07 11:06:45;;;;;;;;;;;;;;;2.20;88.42;101585.53;4183665;28;21066;-85
2023/12/07 11:09:07;;;;;;;;;;;;;;;2.16;88.68;101583.06;4158592;28;19980;-83
2023/12/07 11:11:29;;;;;;;;;;;;;;;2.19;88.29;101578.50;4169841;28;19932;-86
2023/12/07 11:13:54;;;;;;;;;;;;;;;2.21;88.22;101574.78;4173232;28;19978;-87
2023/12/07 11:16:16;;;;;;;;;;;;;;;2.21;88.21;101576.56;4175287;28;20402;-87
2023/12/07 11:18:37;;;;;;;;;;;;;;;2.19;88.41;101570.50;4174440;28;19967;-89
2023/12/07 11:21:00;;;;;;;;;;;;;;;2.17;88.57;101571.44;4184896;28;19932;-86
2023/12/07 11:23:21;;;;;;;;;;;;;;;2.19;88.58;101573.16;4172830;28;19999;-90
2023/12/07 11:25:42;;;;;;;;;;;;;;;2.20;88.56;101572.22;4145816;28;19937;-88
2023/12/07 11:28:05;;;;;;;;;;;;;;;2.20;88.13;101570.38;4180019;28;19936;-91
2023/12/07 11:30:28;;;;;;;;;;;;;;;2.21;88.41;101568.56;4163949;28;20418;-85
2023/12/07 11:32:48;;;;;;;;;;;;;;;2.21;88.43;101565.91;4178130;28;21497;-86
2023/12/07 11:35:12;;;;;;;;;;;;;;;2.23;88.48;101559.53;4170937;28;19975;-86
2023/12/07 11:37:51;;;;;;;;;;;;;;;2.25;88.14;101556.75;4169526;28;19932;-85
2023/12/07 11:40:12;;;;;;;;;;;;;;;2.26;88.39;101556.66;4159947;28;20003;-86
2023/12/07 11:42:32;;;;;;;;;;;;;;;2.26;88.06;101555.81;4186424;28;19934;-86
2023/12/07 11:44:53;;;;;;;;;;;;;;;2.25;88.38;101554.09;4170862;28;20294;-87
2023/12/07 11:47:17;;;;;;;;;;;;;;;2.25;88.17;101557.59;4172193;28;20023;-86
2023/12/07 11:49:38;;;;;;;;;;;;;;;2.21;88.05;101540.13;4184100;28;19939;-85
2023/12/07 11:51:59;;;;;;;;;;;;;;;2.29;88.28;101552.94;4186643;28;19935;-85
2023/12/07 11:54:20;;;;;;;;;;;;;;;2.26;87.93;101554.00;4186790;28;19931;-86
2023/12/07 11:56:41;;;;;;;;;;;;;;;2.28;88.19;101557.41;4186051;28;20092;-85
2023/12/07 11:59:02;;;;;;;;;;;;;;;2.28;88.30;101565.41;4170441;28;19936;-84
2023/12/07 12:01:23;;;;;;;;;;;;;;;2.26;88.06;101561.13;4185677;28;20126;-84
2023/12/07 12:03:47;;;;;;;;;;;;;;;2.29;88.22;101569.78;4185488;28;20736;-87
2023/12/07 12:06:11;;;;;;;;;;;;;;;2.31;88.04;101564.34;4170090;28;20027;-88
2023/12/07 12:08:32;;;;;;;;;;;;;;;2.33;87.91;101557.09;4157572;28;19940;-87
2023/12/07 12:10:53;;;;;;;;;;;;;;;2.31;88.07;101564.34;4162995;28;20024;-86
2023/12/07 12:13:13;;;;;;;;;;;;;;;2.33;87.95;101557.09;4155435;28;19931;-86
2023/12/07 12:15:34;;;;;;;;;;;;;;;2.32;87.77;101552.69;4183823;28;19939;-87
2023/12/07 12:17:56;;;;;;;;;;;;;;;2.32;88.09;101555.38;4184057;28;19940;-87
2023/12/07 12:20:19;;;;;;;;;;;;;;;2.32;88.00;101560.69;4184567;28;20381;-87
2023/12/07 12:22:40;;;;;;;;;;;;;;;2.32;88.19;101558.91;4182185;28;19935;-86